Terminal Aerodrome Forecast
Issued by NWS Wichita, KS

Home | Current Version | Previous Version | Graphics & Text | Print | Product List | Glossary On
Versions: 1 2 3 4 5 6 7 8 9 10 11 12
000
FTUS43 KICT 271100
TAFICT
TAF
KICT 271124Z 2712/2812 04014G19KT P6SM VCTS SCT060CB BKN120
      TEMPO 2712/2714 VRB25G35KT 5SM -TSRA BR BKN035CB
     FM271400 02014KT P6SM BKN080
     FM280100 02010KT P6SM BKN080=

USA.gov is the U.S. government's official web portal to all federal, state and local government web resources and services.